Terminal Aerodrome Forecast
Issued by NWS Tulsa, OK

Home | Current Version | Previous Version | Text Only | Print | Product List | Glossary On
Versions: 1 2 3 4 5 6 7 8 9 10 11 12 13 14 15 16 17 18 19 20
000
FTUS44 KTSA 231100 AAA
TAFTUL
TAF AMD
KTUL 231144Z 2312/2412 12008KT P6SM VCSH OVC008
      TEMPO 2312/2314 BKN025
     FM231400 14011KT P6SM VCSH OVC012
     FM231800 14011KT P6SM VCSH OVC025
     FM240000 14009KT 5SM RA OVC030
     FM240300 17003KT 3SM RA OVC025 PROB30 2403/2409 1/2SM +TSRA
      BKN015CB
     FM240900 16009KT 4SM RA OVC022=

USA.gov is the U.S. government's official web portal to all federal, state and local government web resources and services.